Mississippi State University, Mississippi
Current Conditions -  °F | °C
As of 5:55 PM on Saturday 22 Nov 2014 (Local Time) from KSTF Reporting Station
Clear Clear  
Wind Chill: 61°   Ceiling: Unl
Heat Index: 61°   Visibility: NA
Dew Point: 50°   Wind: 6mph
Humidity: 68%   Direction: 130°SE
Pressure: 30.08"   Gusts: NA
Location:  33.4516°N, 88.7888°W
Report Text: KSTF 222355Z AUTO 13005KT CLR 16/10 A3008 RMK AO2 PWINO
Loading
Personal Weather Stations






























Interactive Weather Map New forecast layout! Learn more

10-Day Weather Forecast

Advertisements
Track Severe Weather on mobile